This is the latest recevied weather packets stored in our database for station/object DG8SF-13. If no packets are shown the sender has not sent any weather packets the latest 10 day(s).
| Time | Temp. | Humidity | Pressure | Rain* | Wind** | Luminosity | Snow |
|---|---|---|---|---|---|---|---|
| 1788091527 | 26.67° C | 50% | 1015 hPa | 0 mm | - | - | - |
| 1788091213 | 26.67° C | 50% | 1015.1 hPa | 0 mm | - | - | - |
| 1788090903 | 27.22° C | 51% | 1015.1 hPa | 0 mm | - | - | - |
| 1788090588 | 27.22° C | 50% | 1015.1 hPa | 0 mm | - | - | - |
| 1788090279 | 27.22° C | 50% | 1015.2 hPa | 0 mm | - | - | - |
| 1788089965 | 27.22° C | 51% | 1015.2 hPa | 0 mm | - | - | - |
| 1788089641 | 26.67° C | 52% | 1015.3 hPa | 0 mm | - | - | - |
| 1788089305 | 25.56° C | 54% | 1015.3 hPa | 0 mm | - | - | - |
| 1788088995 | 25.56° C | 52% | 1015.4 hPa | 0 mm | - | - | - |
| 1788088681 | 26.11° C | 54% | 1015.4 hPa | 0 mm | - | - | - |
| 1788088370 | 25° C | 57% | 1015.6 hPa | 0 mm | - | - | - |
| 1788088057 | 25.56° C | 56% | 1015.5 hPa | 0 mm | - | - | - |
| 1788087746 | 25.56° C | 55% | 1015.5 hPa | 0 mm | - | - | - |
| 1788087434 | 26.11° C | 54% | 1015.5 hPa | 0 mm | - | - | - |
| 1788087110 | 26.11° C | 54% | 1015.5 hPa | 0 mm | - | - | - |
| 1788086796 | 25.56° C | 56% | 1015.5 hPa | 0 mm | - | - | - |
| 1788086486 | 25.56° C | 56% | 1015.6 hPa | 0 mm | - | - | - |
| 1788086172 | 25° C | 56% | 1015.7 hPa | 0 mm | - | - | - |
| 1788085862 | 25.56° C | 56% | 1015.8 hPa | 0 mm | - | - | - |
| 1788085550 | 25° C | 57% | 1015.7 hPa | 0 mm | - | - | - |
| 1788085227 | 25.56° C | 56% | 1015.8 hPa | 0 mm | - | - | - |
| 1788084913 | 25.56° C | 57% | 1015.9 hPa | 0 mm | - | - | - |
| 1788084591 | 26.11° C | 54% | 1015.9 hPa | 0 mm | - | - | - |
| 1788084253 | 25.56° C | 57% | 1016 hPa | 0 mm | - | - | - |
| 1788083942 | 25.56° C | 57% | 1016.1 hPa | 0 mm | - | - | - |
* Rain latest hour (hover to see other rain measurements)
** Current wind speed in m/s (hover to see current wind gust speed)